Time;durP1;ratioP1;P1;durP2;ratioP2;P2;SDS_P1;SDS_P2;PMS_P1;PMS_P2;Temp;Humidity;BMP_temperature;BMP_pressure;BME280_temperature;BME280_humidity;BME280_pressure;Samples;Min_cycle;Max_cycle;Signal;HPM_P1;HPM_P2
2021/01/23 00:00:59;;;;;;;2.53;2.33;;;2.40;99.90;;;2.86;89.63;95804.69;5223243;28;20200;-73
2021/01/23 00:03:31;;;;;;;2.60;2.50;;;2.30;99.90;;;2.77;90.14;95811.75;5223670;28;20221;-69
2021/01/23 00:06:04;;;;;;;3.07;2.90;;;2.20;99.90;;;2.67;90.94;95812.94;5223757;28;20225;-73
2021/01/23 00:08:36;;;;;;;2.93;2.83;;;2.10;99.90;;;2.61;91.39;95814.25;5224553;28;20224;-73
2021/01/23 00:11:08;;;;;;;2.70;2.60;;;2.10;99.90;;;2.46;91.63;95819.31;5222791;28;20196;-73
2021/01/23 00:13:41;;;;;;;2.30;2.20;;;2.00;99.90;;;2.34;91.67;95826.22;5223815;28;20224;-73
2021/01/23 00:16:13;;;;;;;2.47;2.37;;;1.90;99.90;;;2.31;93.05;95831.94;5223836;28;20201;-73
2021/01/23 00:18:45;;;;;;;2.40;2.30;;;1.90;99.90;;;2.33;92.71;95837.09;5224369;28;20193;-73
2021/01/23 00:21:17;;;;;;;2.60;2.50;;;1.80;99.90;;;2.24;92.77;95843.34;5222915;28;20702;-74
2021/01/23 00:23:49;;;;;;;2.50;2.30;;;1.80;99.90;;;2.40;93.46;95850.09;5224518;28;20230;-74
2021/01/23 00:26:21;;;;;;;2.30;2.20;;;1.70;99.90;;;2.34;92.63;95854.78;5223756;28;20222;-74
2021/01/23 00:28:54;;;;;;;2.23;2.13;;;1.70;99.90;;;2.18;92.65;95852.22;5224113;28;20677;-74
2021/01/23 00:31:26;;;;;;;2.77;2.67;;;1.70;99.90;;;2.07;93.13;95866.72;5223660;28;20198;-73
2021/01/23 00:33:58;;;;;;;2.57;2.47;;;1.60;99.90;;;2.06;94.00;95872.56;5222818;28;20220;-74
2021/01/23 00:36:30;;;;;;;2.50;2.40;;;1.60;99.90;;;1.95;93.94;95869.44;5225344;28;20197;-74
2021/01/23 00:39:04;;;;;;;2.20;2.10;;;1.50;99.90;;;1.98;94.23;95874.63;5228914;28;20725;-74
2021/01/23 00:41:36;;;;;;;2.67;2.57;;;1.50;99.90;;;1.94;94.58;95861.78;5228492;28;20282;-73
2021/01/23 00:44:09;;;;;;;3.00;2.90;;;1.50;99.90;;;1.93;94.69;95862.56;5228052;28;20581;-71
2021/01/23 00:46:45;;;;;;;2.57;2.47;;;1.50;99.90;;;1.92;94.29;95864.22;5228162;28;20219;-74
2021/01/23 00:49:17;;;;;;;2.70;2.60;;;1.50;99.90;;;1.94;94.12;95872.72;5227325;28;20202;-74
2021/01/23 00:51:49;;;;;;;2.03;2.03;;;1.50;99.90;;;2.01;94.49;95881.50;5227529;28;20195;-74
2021/01/23 00:54:21;;;;;;;2.23;2.13;;;1.50;99.90;;;1.86;94.37;95883.13;5227395;28;20216;-74
2021/01/23 00:56:53;;;;;;;1.87;1.87;;;1.40;99.90;;;1.95;95.00;95894.63;5226461;28;20193;-74
2021/01/23 00:59:26;;;;;;;3.00;2.90;;;1.40;99.90;;;1.85;94.93;95892.34;5227212;28;20197;-74
2021/01/23 01:01:58;;;;;;;2.30;2.20;;;1.40;99.90;;;1.84;94.92;95907.38;5226600;28;20198;-74
2021/01/23 01:04:30;;;;;;;2.00;2.00;;;1.40;99.90;;;1.99;95.34;95911.63;5225067;28;20210;-69
2021/01/23 01:07:02;;;;;;;2.50;2.40;;;1.40;99.90;;;1.85;95.05;95904.94;5227119;28;20221;-74
2021/01/23 01:09:35;;;;;;;2.00;2.00;;;1.40;99.90;;;1.90;95.65;95911.09;5226312;28;20197;-74
2021/01/23 01:12:08;;;;;;;2.20;2.20;;;1.40;99.90;;;1.92;95.38;95916.25;5227272;28;20620;-74
2021/01/23 01:14:41;;;;;;;2.50;2.40;;;1.40;99.90;;;1.89;95.26;95914.41;5227052;28;20201;-73
2021/01/23 01:17:13;;;;;;;2.60;2.50;;;1.40;99.90;;;1.88;94.99;95926.91;5227021;28;20194;-74
2021/01/23 01:19:46;;;;;;;2.13;2.13;;;1.40;99.90;;;1.80;95.24;95929.88;5226241;28;20193;-74
2021/01/23 01:22:18;;;;;;;2.30;2.20;;;1.40;99.90;;;1.80;95.34;95919.78;5225452;28;20218;-74
2021/01/23 01:24:50;;;;;;;2.30;2.20;;;1.40;99.90;;;1.80;95.64;95929.88;5226518;28;20285;-73
2021/01/23 01:27:22;;;;;;;2.27;2.17;;;1.40;99.90;;;1.95;95.71;95934.06;5225921;28;20318;-73
2021/01/23 01:29:55;;;;;;;1.90;1.90;;;1.40;99.90;;;1.97;95.73;95935.00;5226863;28;20666;-74
2021/01/23 01:32:27;;;;;;;2.13;2.10;;;1.40;99.90;;;1.96;95.59;95940.81;5224742;28;20232;-73
2021/01/23 01:34:59;;;;;;;1.70;1.70;;;1.40;99.90;;;2.02;95.38;95946.22;5226939;28;20233;-73
2021/01/23 01:37:31;;;;;;;1.70;1.70;;;1.40;99.90;;;1.92;95.39;95949.84;5225844;28;20718;-74
2021/01/23 01:40:04;;;;;;;1.93;1.90;;;1.40;99.90;;;1.99;95.52;95951.06;5226686;28;20191;-73
2021/01/23 01:42:37;;;;;;;2.10;2.10;;;1.40;99.90;;;2.05;95.37;95960.63;5225739;28;20215;-73
2021/01/23 01:45:12;;;;;;;1.80;1.80;;;1.40;99.90;;;1.98;95.34;95964.47;5226476;28;20723;-73
2021/01/23 01:47:44;;;;;;;2.30;2.20;;;1.40;99.90;;;1.89;95.66;95968.94;5225833;28;20286;-73
2021/01/23 01:50:17;;;;;;;2.40;2.30;;;1.40;99.90;;;1.92;95.89;95975.03;5226558;28;20206;-72
2021/01/23 01:52:51;;;;;;;2.27;2.17;;;1.40;99.90;;;1.89;95.81;95972.34;5225230;28;20691;-73
2021/01/23 01:55:32;;;;;;;2.60;2.50;;;1.40;99.90;;;1.93;96.11;95985.97;5226128;28;20203;-72
2021/01/23 01:58:04;;;;;;;3.00;2.90;;;1.30;99.90;;;1.93;95.51;95991.03;5225906;28;20297;-73
2021/01/23 02:00:37;;;;;;;2.50;2.40;;;1.40;99.90;;;1.86;96.21;95987.28;5225585;28;20658;-72
2021/01/23 02:03:39;;;;;;;2.60;2.50;;;1.40;99.90;;;1.86;95.67;95998.97;5224838;28;20227;-71
2021/01/23 02:06:31;;;;;;;2.70;2.60;;;1.30;99.90;;;1.88;96.41;95997.44;5224738;28;20603;-72
2021/01/23 02:09:12;;;;;;;2.97;2.87;;;1.40;99.90;;;1.93;96.07;96003.63;5218071;28;20189;-74
2021/01/23 02:11:58;;;;;;;3.43;3.23;;;1.40;99.90;;;1.97;95.71;96018.13;5225604;28;20211;-73
2021/01/23 02:14:36;;;;;;;3.13;3.03;;;1.40;99.90;;;1.91;96.16;96022.78;5225631;28;20596;-73
2021/01/23 02:17:15;;;;;;;3.23;3.03;;;1.40;99.90;;;1.92;96.23;96029.59;5225886;28;20191;-73
2021/01/23 02:20:06;;;;;;;3.80;3.60;;;1.40;99.90;;;2.01;96.27;96041.09;5225795;28;20195;-73
2021/01/23 02:23:10;;;;;;;4.53;4.23;;;1.40;99.90;;;1.98;95.99;96047.59;5223036;28;20216;-73
2021/01/23 02:26:03;;;;;;;3.93;3.63;;;1.50;99.90;;;1.93;96.14;96048.97;5223052;28;20217;-74
2021/01/23 02:28:51;;;;;;;4.03;3.80;;;1.40;99.90;;;1.97;95.69;96064.34;5222281;28;20328;-73
2021/01/23 02:31:28;;;;;;;5.17;4.77;;;1.40;99.90;;;1.91;95.57;96056.41;5223597;28;20225;-71
2021/01/23 02:34:02;;;;;;;4.50;4.10;;;1.40;99.90;;;1.87;96.30;96059.53;5223137;28;20304;-73
2021/01/23 02:36:39;;;;;;;5.20;4.80;;;1.40;99.90;;;2.01;95.01;96057.84;5225577;28;20185;-74
2021/01/23 02:39:14;;;;;;;4.77;4.47;;;1.40;99.90;;;1.98;95.13;96065.22;5224754;28;20193;-74
2021/01/23 02:41:47;;;;;;;4.67;4.33;;;1.40;99.90;;;1.88;95.39;96076.38;5223522;28;20568;-70
2021/01/23 02:44:19;;;;;;;5.20;4.70;;;1.40;99.90;;;1.82;96.08;96083.56;5224963;28;20219;-73
2021/01/23 02:46:55;;;;;;;4.57;4.27;;;1.30;99.90;;;1.79;96.04;96084.25;5223875;28;20224;-73
2021/01/23 02:49:28;;;;;;;6.17;5.67;;;1.30;99.90;;;1.82;95.56;96081.03;5224995;28;20201;-74
2021/01/23 02:52:06;;;;;;;5.73;5.33;;;1.30;99.90;;;1.83;96.48;96085.28;5225605;28;20225;-74
2021/01/23 02:54:49;;;;;;;6.10;5.60;;;1.20;99.90;;;1.76;96.30;96094.13;5223960;28;20205;-73
2021/01/23 02:57:23;;;;;;;6.07;5.67;;;1.30;99.90;;;1.74;96.55;96095.66;5223540;28;20287;-73
2021/01/23 03:00:03;;;;;;;5.97;5.57;;;1.30;99.90;;;1.71;96.32;96099.66;5218164;28;20201;-74
2021/01/23 03:02:42;;;;;;;5.50;5.10;;;1.30;99.90;;;1.69;96.58;96107.13;5224270;28;20304;-74
2021/01/23 03:05:15;;;;;;;6.50;6.00;;;1.30;99.90;;;1.70;96.49;96113.91;5224801;28;20203;-72
2021/01/23 03:07:51;;;;;;;6.73;6.23;;;1.20;99.90;;;1.66;96.69;96119.53;5224844;28;20229;-73
2021/01/23 03:10:35;;;;;;;6.13;5.63;;;1.20;99.90;;;1.70;96.17;96113.91;5223324;28;20203;-73
2021/01/23 03:13:10;;;;;;;6.90;6.40;;;1.20;99.90;;;1.79;96.51;96114.47;5222294;28;20209;-71
2021/01/23 03:15:43;;;;;;;6.47;5.97;;;1.20;99.90;;;1.74;96.92;96130.06;5225224;28;20285;-73
2021/01/23 03:18:16;;;;;;;6.83;6.23;;;1.20;99.90;;;1.76;96.01;96123.47;5224064;28;20603;-73
2021/01/23 03:20:48;;;;;;;7.27;6.60;;;1.20;99.90;;;1.78;96.69;96137.06;5225776;28;20656;-73
2021/01/23 03:23:20;;;;;;;7.53;6.93;;;1.20;99.90;;;1.78;95.99;96142.94;5223320;28;20232;-73
2021/01/23 03:25:53;;;;;;;7.30;6.70;;;1.20;99.90;;;1.76;96.22;96148.66;5225259;28;20227;-73
2021/01/23 03:28:25;;;;;;;7.13;6.53;;;1.20;99.90;;;1.67;97.17;96146.44;5223042;28;20208;-74
2021/01/23 03:30:57;;;;;;;6.83;6.27;;;1.10;99.90;;;1.64;96.59;96157.97;5224117;28;20204;-73
2021/01/23 03:33:29;;;;;;;8.00;7.30;;;1.10;99.90;;;1.59;96.75;96165.22;5224091;28;20221;-73
2021/01/23 03:36:02;;;;;;;8.70;8.00;;;1.10;99.90;;;1.69;96.46;96167.56;5224433;28;20258;-73
2021/01/23 03:38:34;;;;;;;8.57;7.77;;;1.10;99.90;;;1.72;97.19;96175.31;5223825;28;20188;-70
2021/01/23 03:41:06;;;;;;;8.80;7.97;;;1.10;99.90;;;1.69;96.59;96177.63;5223688;28;20203;-73
2021/01/23 03:43:38;;;;;;;9.37;8.47;;;1.10;99.90;;;1.71;96.03;96178.59;5223131;28;20594;-74
2021/01/23 03:46:11;;;;;;;9.47;8.57;;;1.10;99.90;;;1.66;96.60;96181.59;5224359;28;20585;-73
2021/01/23 03:49:01;;;;;;;7.53;6.93;;;1.10;99.90;;;1.71;96.69;96188.66;5223537;28;20291;-73
2021/01/23 03:51:34;;;;;;;8.40;7.70;;;1.10;99.90;;;1.71;97.09;96192.81;5224151;28;20234;-73
2021/01/23 03:54:06;;;;;;;7.80;7.20;;;1.10;99.90;;;1.67;97.09;96196.81;5224454;28;20221;-73
2021/01/23 03:56:38;;;;;;;7.93;7.20;;;1.20;99.90;;;1.70;97.20;96199.50;5224090;28;20328;-73
2021/01/23 03:59:10;;;;;;;8.00;7.30;;;1.20;99.90;;;1.64;97.08;96198.25;5223944;28;20657;-73
2021/01/23 04:01:43;;;;;;;8.90;8.10;;;1.20;99.90;;;1.65;97.26;96195.81;5223023;28;20199;-73
2021/01/23 04:04:16;;;;;;;8.00;7.30;;;1.20;99.90;;;1.62;97.29;96208.22;5223578;28;20229;-73
2021/01/23 04:06:48;;;;;;;8.20;7.50;;;1.20;99.90;;;1.73;97.62;96201.34;5224516;28;20221;-73
2021/01/23 04:09:21;;;;;;;8.10;7.47;;;1.20;99.90;;;1.68;96.42;96205.22;5222393;28;20233;-73
2021/01/23 04:11:53;;;;;;;7.70;7.03;;;1.10;99.90;;;1.59;97.93;96208.03;5225216;28;20201;-72
2021/01/23 04:14:25;;;;;;;7.37;6.77;;;1.10;99.90;;;1.77;97.18;96214.25;5228073;28;20197;-73
2021/01/23 04:16:57;;;;;;;7.50;6.90;;;1.20;99.90;;;1.71;97.26;96226.44;5226520;28;20197;-73
2021/01/23 04:19:30;;;;;;;7.70;7.10;;;1.10;99.90;;;1.85;97.72;96223.94;5226392;28;20197;-73
2021/01/23 04:22:02;;;;;;;6.87;6.33;;;1.20;99.90;;;1.80;96.48;96216.06;5227914;28;20198;-74
2021/01/23 04:24:35;;;;;;;6.63;6.13;;;1.20;99.90;;;1.65;97.30;96225.19;5226208;28;20201;-73
2021/01/23 04:27:08;;;;;;;7.17;6.57;;;1.20;99.90;;;1.67;97.35;96227.03;5228334;28;20293;-72
2021/01/23 04:29:40;;;;;;;6.73;6.23;;;1.20;99.90;;;1.63;97.52;96235.16;5226966;28;20202;-70
2021/01/23 04:32:12;;;;;;;7.00;6.40;;;1.20;99.90;;;1.72;97.46;96233.22;5227493;28;20197;-71
2021/01/23 04:34:46;;;;;;;6.80;6.30;;;1.20;99.90;;;1.76;96.50;96232.63;5226861;28;20201;-73
2021/01/23 04:37:19;;;;;;;6.57;6.07;;;1.20;99.90;;;1.74;97.45;96231.66;5228796;28;20239;-74
2021/01/23 04:39:51;;;;;;;6.40;5.90;;;1.20;99.90;;;1.76;97.52;96230.13;5227269;28;20197;-72
2021/01/23 04:42:23;;;;;;;5.30;4.90;;;1.20;99.90;;;1.74;96.95;96230.78;5227219;28;20221;-73
2021/01/23 04:44:55;;;;;;;6.77;6.33;;;1.10;99.90;;;1.80;97.04;96226.16;5228472;28;20197;-73
2021/01/23 04:47:29;;;;;;;5.90;5.40;;;1.20;99.90;;;1.83;96.45;96228.84;5227678;28;20665;-73
2021/01/23 04:50:03;;;;;;;6.53;6.13;;;1.20;99.90;;;1.77;97.80;96239.44;5226448;28;20593;-73
2021/01/23 04:52:36;;;;;;;6.87;6.40;;;1.20;99.90;;;1.77;97.45;96236.91;5227708;28;20216;-73
2021/01/23 04:55:10;;;;;;;6.90;6.40;;;1.20;99.90;;;1.87;97.49;96245.06;5228164;28;20234;-73
2021/01/23 04:57:43;;;;;;;6.87;6.37;;;1.20;99.90;;;1.88;97.18;96244.28;5227254;28;20186;-72
2021/01/23 05:00:16;;;;;;;6.63;6.23;;;1.20;99.90;;;1.93;97.19;96247.97;5228312;28;20228;-73
2021/01/23 05:02:59;;;;;;;6.40;5.90;;;1.30;99.90;;;1.80;97.41;96262.31;5226961;28;20236;-73
2021/01/23 05:05:33;;;;;;;7.87;7.27;;;1.20;99.90;;;1.82;96.91;96271.59;5227053;28;20208;-73
2021/01/23 05:08:07;;;;;;;7.20;6.60;;;1.20;99.90;;;1.69;97.35;96275.84;5227017;28;20222;-72
2021/01/23 05:10:40;;;;;;;8.13;7.43;;;1.30;99.90;;;1.76;98.43;96285.53;5208452;28;20672;-73
2021/01/23 05:13:15;;;;;;;8.13;7.43;;;1.30;99.90;;;1.77;97.69;96279.75;5218878;28;20214;-73
2021/01/23 05:15:47;;;;;;;8.50;7.70;;;1.30;99.90;;;1.74;98.23;96287.06;5227387;28;20197;-73
2021/01/23 05:18:19;;;;;;;8.40;7.70;;;1.30;99.90;;;1.87;97.91;96282.84;5226266;28;20603;-70
2021/01/23 05:20:54;;;;;;;7.37;6.77;;;1.30;99.90;;;1.95;97.34;96276.66;5226490;28;20197;-71
2021/01/23 05:23:27;;;;;;;8.37;7.70;;;1.30;99.90;;;1.88;97.53;96290.47;5224745;28;20221;-73
2021/01/23 05:26:01;;;;;;;8.00;7.20;;;1.30;99.90;;;1.85;97.47;96309.56;5225120;28;20189;-70
2021/01/23 05:28:37;;;;;;;9.30;8.43;;;1.30;99.90;;;1.85;98.29;96304.53;5225798;28;20203;-73
2021/01/23 05:31:18;;;;;;;9.70;8.80;;;1.30;99.90;;;1.84;98.48;96307.84;5226742;28;20201;-73
2021/01/23 05:33:50;;;;;;;8.47;7.77;;;1.30;99.90;;;1.87;97.72;96308.03;5225625;28;20526;-73
2021/01/23 05:36:23;;;;;;;9.07;8.27;;;1.40;99.90;;;1.86;98.13;96298.72;5225889;28;20195;-74
2021/01/23 05:38:56;;;;;;;9.50;8.63;;;1.40;99.90;;;1.89;97.71;96302.31;5223669;28;20194;-72
2021/01/23 05:41:28;;;;;;;10.63;9.17;;;1.40;99.90;;;1.88;98.18;96297.16;5226607;28;20199;-73
2021/01/23 05:44:00;;;;;;;9.43;8.53;;;1.50;99.90;;;1.89;97.78;96297.28;5226632;28;20216;-74
2021/01/23 05:46:32;;;;;;;9.73;8.83;;;1.50;99.90;;;1.91;97.78;96295.72;5221395;28;20599;-72
2021/01/23 05:49:05;;;;;;;10.30;9.30;;;1.50;99.90;;;1.95;98.18;96294.28;5223655;28;20280;-73
2021/01/23 05:51:37;;;;;;;10.27;9.27;;;1.50;99.90;;;1.96;98.18;96296.03;5224995;28;20198;-73
2021/01/23 05:54:10;;;;;;;9.97;8.97;;;1.50;99.90;;;2.02;98.61;96289.72;5224169;28;20227;-70
2021/01/23 05:56:42;;;;;;;9.57;8.57;;;1.50;99.90;;;2.07;97.70;96296.72;5226583;28;20197;-72
2021/01/23 05:59:14;;;;;;;10.90;9.87;;;1.60;99.90;;;2.07;97.40;96294.19;5226525;28;20206;-71
2021/01/23 06:01:47;;;;;;;10.57;9.57;;;1.50;99.90;;;2.04;97.42;96292.34;5226122;28;20199;-72
2021/01/23 06:04:20;;;;;;;10.57;9.50;;;1.50;99.90;;;2.06;97.45;96289.91;5224452;28;20231;-74
2021/01/23 06:06:55;;;;;;;11.27;10.07;;;1.50;99.90;;;2.03;97.66;96291.47;5225252;28;20596;-74
2021/01/23 06:09:35;;;;;;;11.27;10.17;;;1.60;99.90;;;2.05;97.71;96291.56;5219511;28;20707;-74
2021/01/23 06:12:39;;;;;;;10.47;9.37;;;1.60;99.90;;;2.06;97.50;96295.84;5222660;28;20196;-74
2021/01/23 06:15:36;;;;;;;10.50;9.50;;;1.60;99.90;;;2.13;97.85;96297.97;5223865;28;20203;-72
2021/01/23 06:18:28;;;;;;;10.93;9.93;;;1.60;99.90;;;2.11;96.99;96299.50;5226657;28;20282;-74
2021/01/23 06:21:02;;;;;;;10.43;9.43;;;1.50;99.90;;;2.02;97.04;96294.75;5227393;28;20214;-74
2021/01/23 06:23:51;;;;;;;9.90;9.00;;;1.50;99.90;;;2.03;97.38;96295.63;5225199;28;20221;-74
2021/01/23 06:26:23;;;;;;;10.30;9.37;;;1.60;99.90;;;2.05;97.90;96301.63;5225909;28;20264;-75
2021/01/23 06:28:55;;;;;;;9.53;8.67;;;1.60;99.90;;;2.06;97.30;96295.84;5226251;28;20207;-75
2021/01/23 06:31:37;;;;;;;11.43;10.20;;;1.60;99.90;;;2.08;96.71;96298.44;5225290;28;20202;-74
2021/01/23 06:34:27;;;;;;;10.80;9.80;;;1.60;99.90;;;2.14;97.95;96304.75;5223864;28;20245;-71
2021/01/23 06:37:25;;;;;;;9.30;8.50;;;1.60;99.90;;;2.19;97.40;96307.56;5224611;28;20197;-72
2021/01/23 06:40:16;;;;;;;10.30;9.40;;;1.60;99.90;;;2.11;97.38;96309.59;5220058;28;20193;-75
2021/01/23 06:42:51;;;;;;;8.87;8.07;;;1.70;99.90;;;2.08;97.49;96303.50;5205746;28;20224;-75
2021/01/23 06:45:26;;;;;;;10.23;9.33;;;1.70;99.90;;;2.11;97.44;96311.25;5224876;28;20244;-73
2021/01/23 06:47:59;;;;;;;10.13;9.23;;;1.60;99.90;;;2.09;96.91;96302.69;5226420;28;20272;-76
2021/01/23 06:50:35;;;;;;;10.53;9.53;;;1.70;99.90;;;2.11;97.42;96312.09;5226053;28;20203;-72
2021/01/23 06:53:21;;;;;;;9.27;8.37;;;1.70;99.90;;;2.14;98.12;96316.47;5226970;28;20214;-70
2021/01/23 06:55:55;;;;;;;10.77;9.83;;;1.70;99.90;;;2.21;97.90;96311.94;5226425;28;20236;-77
2021/01/23 06:58:29;;;;;;;12.03;10.83;;;1.70;99.90;;;2.17;97.62;96315.00;5223998;28;20643;-75
2021/01/23 07:01:02;;;;;;;11.33;10.27;;;1.60;99.90;;;2.16;97.91;96313.28;5212957;28;20568;-75
2021/01/23 07:03:34;;;;;;;11.50;10.30;;;1.70;99.90;;;2.18;98.06;96321.81;5225964;28;20616;-73
2021/01/23 07:06:07;;;;;;;11.63;10.60;;;1.70;99.90;;;2.16;98.52;96325.00;5226750;28;20200;-74
2021/01/23 07:08:40;;;;;;;10.37;9.37;;;1.70;99.90;;;2.16;98.18;96320.84;5226371;28;20191;-75
2021/01/23 07:11:15;;;;;;;11.03;10.03;;;1.70;99.90;;;2.15;98.60;96316.59;5226123;28;20203;-75
2021/01/23 07:13:59;;;;;;;10.17;9.23;;;1.70;99.90;;;2.13;98.33;96308.03;5223158;28;20703;-75
2021/01/23 07:16:33;;;;;;;10.30;9.30;;;1.70;99.90;;;2.16;98.08;96313.28;5227305;28;20198;-75
2021/01/23 07:19:07;;;;;;;9.40;8.57;;;1.70;99.90;;;2.14;98.38;96319.00;5225729;28;20707;-75
2021/01/23 07:21:41;;;;;;;10.30;9.30;;;1.70;99.90;;;2.14;98.14;96314.81;5222407;28;20198;-75
2021/01/23 07:24:13;;;;;;;9.03;8.13;;;1.70;99.90;;;2.14;98.47;96319.00;5224618;28;20217;-75
2021/01/23 07:26:47;;;;;;;12.07;10.93;;;1.70;99.90;;;2.18;99.13;96320.94;5227016;28;20339;-76
2021/01/23 07:29:20;;;;;;;12.20;11.10;;;1.80;99.90;;;2.12;98.70;96310.44;5208063;28;20202;-76
2021/01/23 07:31:55;;;;;;;12.23;11.00;;;1.70;99.90;;;2.15;98.18;96316.59;5212605;28;20280;-76
2021/01/23 07:34:27;;;;;;;11.13;10.13;;;1.70;99.90;;;2.17;98.87;96314.16;5225363;28;20245;-76
2021/01/23 07:36:59;;;;;;;10.87;9.87;;;1.70;99.90;;;2.18;98.22;96321.81;5218427;28;20204;-76
2021/01/23 07:39:31;;;;;;;8.97;8.17;;;1.70;99.90;;;2.14;98.47;96319.84;5212673;28;20202;-74
2021/01/23 07:42:06;;;;;;;8.73;7.93;;;1.70;99.90;;;2.21;98.81;96326.19;5211877;28;20563;-77
2021/01/23 07:44:38;;;;;;;9.30;8.50;;;1.80;99.90;;;2.24;99.41;96321.34;5224272;28;20201;-75
2021/01/23 07:47:14;;;;;;;9.53;8.73;;;1.80;99.90;;;2.26;98.76;96319.75;5221093;28;20216;-75
2021/01/23 07:49:46;;;;;;;9.87;8.97;;;1.80;99.90;;;2.30;99.55;96325.91;5225336;28;20201;-75
2021/01/23 07:52:27;;;;;;;9.10;8.30;;;1.90;99.90;;;2.33;99.30;96321.03;5226819;28;20218;-75
2021/01/23 07:54:59;;;;;;;10.07;9.17;;;1.80;99.90;;;2.34;98.64;96317.75;5226432;28;20205;-74
2021/01/23 07:57:32;;;;;;;11.13;10.00;;;1.80;99.90;;;2.37;99.19;96317.94;5225817;28;20274;-76
2021/01/23 08:00:07;;;;;;;10.87;9.87;;;1.90;99.90;;;2.37;99.20;96318.78;5225708;28;20575;-75
2021/01/23 08:02:50;;;;;;;12.53;11.40;;;1.80;99.90;;;2.33;99.12;96316.00;5207635;28;20729;-75
2021/01/23 08:05:42;;;;;;;9.50;8.63;;;1.80;99.90;;;2.33;98.80;96323.56;5224546;28;20883;-75
2021/01/23 08:08:29;;;;;;;9.73;8.90;;;1.70;99.90;;;2.43;100.00;96323.34;5224010;28;20218;-75
2021/01/23 08:11:03;;;;;;;8.83;7.90;;;1.80;99.90;;;2.52;100.00;96323.94;5224712;28;20196;-74
2021/01/23 08:13:36;;;;;;;8.83;7.93;;;1.90;99.90;;;2.62;100.00;96321.22;5220361;28;20212;-74
2021/01/23 08:16:12;;;;;;;11.40;9.87;;;1.90;99.90;;;2.68;100.00;96316.53;5210338;28;20633;-74
2021/01/23 08:18:45;;;;;;;10.03;9.10;;;1.90;99.90;;;2.70;100.00;96317.50;5224339;28;20190;-74
2021/01/23 08:21:19;;;;;;;9.83;8.83;;;2.00;99.90;;;2.63;100.00;96317.94;5225247;28;20211;-74
2021/01/23 08:23:51;;;;;;;9.43;8.60;;;1.90;99.90;;;2.64;100.00;96307.06;5224658;28;20212;-75
2021/01/23 08:26:37;;;;;;;8.33;7.67;;;1.90;99.90;;;2.61;100.00;96296.78;5225111;28;20217;-75
2021/01/23 08:29:19;;;;;;;9.17;8.37;;;1.90;99.90;;;2.69;100.00;96305.69;5225241;28;20288;-76
2021/01/23 08:32:01;;;;;;;10.77;9.77;;;1.90;99.90;;;2.71;100.00;96306.63;5225168;28;20299;-74
2021/01/23 08:34:33;;;;;;;13.33;12.03;;;2.00;99.90;;;2.73;100.00;96308.41;5224030;28;20197;-74
2021/01/23 08:37:06;;;;;;;15.90;14.20;;;2.00;99.90;;;2.70;100.00;96304.91;5223109;28;20200;-74
2021/01/23 08:39:43;;;;;;;14.10;12.80;;;2.00;99.90;;;2.82;100.00;96298.88;5223613;28;20195;-74
2021/01/23 08:42:15;;;;;;;14.33;12.93;;;2.10;99.90;;;2.86;100.00;96300.78;5224214;28;20701;-74
2021/01/23 08:44:48;;;;;;;14.57;13.10;;;2.20;99.90;;;2.96;100.00;96303.09;5222738;28;20194;-73
2021/01/23 08:47:20;;;;;;;13.60;12.20;;;2.20;99.90;;;3.03;100.00;96306.84;5224359;28;20275;-74
2021/01/23 08:49:52;;;;;;;14.70;12.90;;;2.10;99.90;;;3.17;100.00;96294.28;5223983;28;20212;-74
2021/01/23 08:52:24;;;;;;;17.00;14.03;;;2.30;99.90;;;3.03;100.00;96295.09;5223480;28;20699;-74
2021/01/23 08:54:56;;;;;;;14.60;13.10;;;2.20;99.90;;;3.06;100.00;96292.78;5219598;28;20204;-74
2021/01/23 08:57:28;;;;;;;12.07;11.07;;;2.20;99.90;;;3.17;100.00;96288.38;5222527;28;20192;-72
2021/01/23 09:00:02;;;;;;;12.67;11.37;;;2.40;99.90;;;3.19;100.00;96288.47;5227351;28;20220;-73
2021/01/23 09:02:35;;;;;;;13.07;11.77;;;2.40;99.90;;;3.27;100.00;96284.75;5226533;28;20236;-72
2021/01/23 09:05:10;;;;;;;13.10;11.90;;;2.50;99.90;;;3.29;100.00;96283.16;5226678;28;20206;-74
2021/01/23 09:07:43;;;;;;;14.43;12.20;;;2.50;99.90;;;3.37;100.00;96275.25;5227142;28;20224;-74
2021/01/23 09:10:15;;;;;;;11.17;10.07;;;2.60;99.90;;;3.48;100.00;96280.06;5227356;28;20652;-75
2021/01/23 09:12:48;;;;;;;11.13;10.10;;;2.70;99.90;;;3.52;100.00;96277.84;5224379;28;20224;-75
2021/01/23 09:15:21;;;;;;;10.47;9.57;;;2.70;99.90;;;3.57;100.00;96275.56;5225184;28;20204;-75
2021/01/23 09:17:53;;;;;;;12.30;11.10;;;2.70;99.90;;;3.59;100.00;96277.38;5224924;28;20291;-74
2021/01/23 09:20:25;;;;;;;11.47;10.47;;;2.80;99.90;;;3.68;100.00;96274.53;5224289;28;20190;-74
2021/01/23 09:22:57;;;;;;;12.50;10.07;;;2.80;99.90;;;3.56;100.00;96279.75;5227510;28;20225;-75
2021/01/23 09:25:29;;;;;;;13.23;10.13;;;2.80;99.90;;;3.66;100.00;96275.22;5227340;28;20194;-77
2021/01/23 09:28:01;;;;;;;12.73;11.50;;;2.80;99.90;;;3.75;100.00;96264.00;5228763;28;20316;-74
2021/01/23 09:30:35;;;;;;;12.70;11.50;;;2.90;99.90;;;3.77;100.00;96259.00;5227147;28;20194;-73
2021/01/23 09:33:08;;;;;;;12.40;11.20;;;3.00;99.90;;;3.80;100.00;96265.09;5212151;28;20232;-73
2021/01/23 09:35:44;;;;;;;12.50;10.00;;;3.00;99.90;;;3.80;100.00;96264.25;5219419;28;20201;-74
2021/01/23 09:38:16;;;;;;;12.03;10.40;;;3.00;99.90;;;3.99;100.00;96267.03;5229924;28;20285;-73
2021/01/23 09:40:49;;;;;;;10.77;9.77;;;3.10;99.90;;;4.03;100.00;96268.06;5230978;28;20201;-73
2021/01/23 09:43:21;;;;;;;11.00;9.90;;;3.10;99.90;;;3.99;100.00;96261.09;5228739;28;20550;-73
2021/01/23 09:45:54;;;;;;;10.50;9.50;;;3.20;99.90;;;4.04;100.00;96255.53;5230626;28;20687;-75
2021/01/23 09:48:26;;;;;;;10.17;9.20;;;3.20;99.90;;;4.11;100.00;96250.81;5217953;28;20242;-72
2021/01/23 09:50:58;;;;;;;11.03;10.03;;;3.20;99.90;;;4.29;100.00;96256.84;5214151;28;20197;-72
2021/01/23 09:53:30;;;;;;;10.50;9.60;;;3.30;99.90;;;4.35;100.00;96247.09;5228654;28;20705;-72
2021/01/23 09:56:03;;;;;;;11.53;10.30;;;3.40;99.90;;;4.55;100.00;96245.66;5228003;28;20514;-72
2021/01/23 09:58:35;;;;;;;10.33;9.20;;;3.60;99.90;;;4.54;100.00;96238.81;5229176;28;20677;-73
2021/01/23 10:01:08;;;;;;;10.67;9.57;;;3.50;99.90;;;4.48;100.00;96233.44;5227872;28;20293;-73
2021/01/23 10:03:40;;;;;;;10.50;9.40;;;3.50;99.90;;;4.56;100.00;96236.41;5228027;28;20225;-73
2021/01/23 10:06:12;;;;;;;12.67;10.93;;;3.60;99.90;;;4.74;100.00;96227.22;5229244;28;20302;-72
2021/01/23 10:08:44;;;;;;;10.40;9.00;;;3.70;99.90;;;4.77;100.00;96232.47;5229811;28;20219;-72
2021/01/23 10:11:16;;;;;;;9.30;8.47;;;3.80;99.90;;;4.78;100.00;96224.09;5229450;28;20201;-72
2021/01/23 10:13:48;;;;;;;8.33;7.40;;;3.80;99.90;;;4.64;99.02;96212.38;5225153;28;20234;-74
2021/01/23 10:16:21;;;;;;;7.73;7.07;;;3.70;99.90;;;4.77;99.83;96211.34;5213838;28;20579;-73
2021/01/23 10:18:53;;;;;;;8.53;7.67;;;3.80;99.90;;;4.80;98.23;96207.31;5215322;28;20291;-75
2021/01/23 10:21:25;;;;;;;8.10;7.40;;;3.90;99.90;;;4.81;98.48;96198.94;5228444;28;20199;-74
2021/01/23 10:23:57;;;;;;;7.70;6.83;;;3.90;99.90;;;4.74;99.07;96194.34;5216450;28;20219;-74
2021/01/23 10:26:29;;;;;;;6.97;6.43;;;3.90;99.90;;;4.71;99.32;96197.56;5227590;28;20195;-73
2021/01/23 10:29:01;;;;;;;7.37;6.83;;;3.90;99.90;;;4.78;100.00;96193.72;5224493;28;20221;-74
2021/01/23 10:31:34;;;;;;;8.00;7.30;;;3.80;99.90;;;4.85;100.00;96187.31;5223623;28;20225;-74
2021/01/23 10:34:07;;;;;;;8.30;7.53;;;4.10;99.90;;;5.14;100.00;96176.13;5219056;28;20264;-74
2021/01/23 10:36:40;;;;;;;8.20;7.37;;;4.30;99.90;;;5.07;99.59;96181.69;5220759;28;20200;-73
2021/01/23 10:39:12;;;;;;;7.03;6.43;;;4.10;99.90;;;4.93;97.50;96169.19;5223057;28;20705;-73
2021/01/23 10:41:44;;;;;;;7.67;7.07;;;4.00;99.90;;;4.87;97.74;96173.09;5223078;28;20200;-74
2021/01/23 10:44:16;;;;;;;16.43;10.50;;;4.00;99.90;;;4.86;98.30;96169.66;5228561;28;20995;-73
2021/01/23 10:46:49;;;;;;;8.73;7.93;;;4.00;99.90;;;4.96;99.23;96159.22;5215525;28;20295;-74
2021/01/23 10:49:21;;;;;;;8.30;7.40;;;4.00;99.90;;;4.97;99.39;96145.75;5225899;28;20661;-73
2021/01/23 10:51:53;;;;;;;8.57;7.83;;;4.20;99.90;;;5.02;98.69;96147.66;5227017;28;20348;-73
2021/01/23 10:54:25;;;;;;;8.67;7.97;;;4.20;99.90;;;5.16;98.20;96147.56;5226835;28;20203;-73
2021/01/23 10:56:58;;;;;;;8.70;8.00;;;4.30;99.90;;;5.07;98.17;96148.78;5226184;28;20643;-73
2021/01/23 10:59:30;;;;;;;8.27;7.63;;;4.10;99.90;;;5.03;97.75;96149.41;5226102;28;20594;-74